createdAt,value
2019-02-04T00:01:17.046Z,5.53
2019-02-04T00:03:41.577Z,5.93
2019-02-04T00:06:06.245Z,5.77
2019-02-04T00:08:30.671Z,5.47
2019-02-04T00:10:55.072Z,5.67
2019-02-04T00:13:19.491Z,6.00
2019-02-04T00:15:44.113Z,5.83
2019-02-04T00:18:08.657Z,5.57
2019-02-04T00:20:33.138Z,5.20
2019-02-04T00:22:57.576Z,5.57
2019-02-04T00:25:21.971Z,5.67
2019-02-04T00:27:46.463Z,6.07
2019-02-04T00:30:16.686Z,5.50
2019-02-04T00:32:41.151Z,5.60
2019-02-04T00:35:06.318Z,5.97
2019-02-04T00:37:30.712Z,5.53
2019-02-04T00:39:55.136Z,5.60
2019-02-04T00:42:19.533Z,6.50
2019-02-04T00:44:43.956Z,5.53
2019-02-04T00:47:08.418Z,5.57
2019-02-04T00:49:32.847Z,5.90
2019-02-04T00:51:57.422Z,5.37
2019-02-04T00:54:21.845Z,6.37
2019-02-04T00:56:46.380Z,5.50
2019-02-04T00:59:10.801Z,6.37
2019-02-04T01:01:35.235Z,6.13
2019-02-04T01:03:59.712Z,5.87
2019-02-04T01:06:24.249Z,5.57
2019-02-04T01:08:49.678Z,5.63
2019-02-04T01:11:14.179Z,5.93
2019-02-04T01:13:40.501Z,5.80
2019-02-04T01:16:05.122Z,6.80
2019-02-04T01:18:29.488Z,6.10
2019-02-04T01:20:53.906Z,6.00
2019-02-04T01:23:18.301Z,6.10
2019-02-04T01:25:42.734Z,6.17
2019-02-04T01:28:07.130Z,6.27
2019-02-04T01:30:31.639Z,6.47
2019-02-04T01:32:56.118Z,5.93
2019-02-04T01:35:21.196Z,6.37
2019-02-04T01:37:45.664Z,6.47
2019-02-04T01:40:13.397Z,5.77
2019-02-04T01:42:37.894Z,6.30
2019-02-04T01:45:02.291Z,6.33
2019-02-04T01:47:26.715Z,6.97
2019-02-04T01:49:51.210Z,6.43
2019-02-04T01:52:15.635Z,6.53
2019-02-04T01:54:40.029Z,6.60
2019-02-04T01:57:04.459Z,6.73
2019-02-04T01:59:29.128Z,6.60
2019-02-04T02:01:53.566Z,6.93
2019-02-04T02:04:17.963Z,6.80
2019-02-04T02:06:42.392Z,6.93
2019-02-04T02:09:10.368Z,6.70
2019-02-04T02:11:34.876Z,6.83
2019-02-04T02:13:59.265Z,6.87
2019-02-04T02:16:23.675Z,7.00
2019-02-04T02:18:48.111Z,6.90
2019-02-04T02:21:12.515Z,6.93
2019-02-04T02:23:37.008Z,7.20
2019-02-04T02:26:01.481Z,6.63
2019-02-04T02:28:25.912Z,6.90
2019-02-04T02:30:50.327Z,7.00
2019-02-04T02:33:14.762Z,6.87
2019-02-04T02:35:39.152Z,6.60
2019-02-04T02:38:03.570Z,6.77
2019-02-04T02:40:30.615Z,7.70
2019-02-04T02:42:55.356Z,6.90
2019-02-04T02:45:19.853Z,7.20
2019-02-04T02:47:44.347Z,7.13
2019-02-04T02:50:11.523Z,7.13
2019-02-04T02:52:35.919Z,7.80
2019-02-04T02:55:00.366Z,7.33
2019-02-04T02:57:24.762Z,6.83
2019-02-04T02:59:49.197Z,7.23
2019-02-04T03:02:13.589Z,7.07
2019-02-04T03:04:38.012Z,7.80
2019-02-04T03:07:02.702Z,7.70
2019-02-04T03:09:27.090Z,7.83
2019-02-04T03:11:51.517Z,8.80
2019-02-04T03:14:15.922Z,8.30
2019-02-04T03:16:40.351Z,8.13
2019-02-04T03:19:04.986Z,8.13
2019-02-04T03:21:29.406Z,7.40
2019-02-04T03:23:53.880Z,7.87
2019-02-04T03:26:18.295Z,8.17
2019-02-04T03:28:42.977Z,8.53
2019-02-04T03:31:07.425Z,8.10
2019-02-04T03:33:31.837Z,8.97
2019-02-04T03:35:56.232Z,8.77
2019-02-04T03:38:20.644Z,8.27
2019-02-04T03:40:45.108Z,8.83
2019-02-04T03:43:09.527Z,9.03
2019-02-04T03:45:33.926Z,9.47
2019-02-04T03:48:06.940Z,9.27
2019-02-04T03:50:24.587Z,9.63
2019-02-04T03:52:49.290Z,8.90
2019-02-04T03:55:15.826Z,9.73
2019-02-04T03:57:40.323Z,9.37
2019-02-04T04:00:07.831Z,9.03
2019-02-04T04:02:32.325Z,8.60
2019-02-04T04:04:56.995Z,8.93
2019-02-04T04:07:21.475Z,9.50
2019-02-04T04:09:45.874Z,9.27
2019-02-04T04:12:10.572Z,9.17
2019-02-04T04:14:35.046Z,8.70
2019-02-04T04:16:59.442Z,8.50
2019-02-04T04:19:23.860Z,9.70
2019-02-04T04:21:48.265Z,8.53
2019-02-04T04:24:12.689Z,8.93
2019-02-04T04:26:37.168Z,9.07
2019-02-04T04:29:01.589Z,8.67
2019-02-04T04:31:25.993Z,8.90
2019-02-04T04:33:50.419Z,9.20
2019-02-04T04:36:15.071Z,8.93
2019-02-04T04:38:39.503Z,9.60
2019-02-04T04:41:04.071Z,9.43
2019-02-04T04:43:28.480Z,9.67
2019-02-04T04:45:52.879Z,9.83
2019-02-04T04:48:26.361Z,9.47
2019-02-04T04:50:43.476Z,9.40
2019-02-04T04:53:07.954Z,9.87
2019-02-04T04:55:32.458Z,10.33
2019-02-04T04:57:56.931Z,10.37
2019-02-04T05:00:24.678Z,9.73
2019-02-04T05:02:49.151Z,9.73
2019-02-04T05:05:14.627Z,10.63
2019-02-04T05:07:39.105Z,11.47
2019-02-04T05:10:04.329Z,11.03
2019-02-04T05:12:28.734Z,11.17
2019-02-04T05:14:53.178Z,10.77
2019-02-04T05:17:17.592Z,11.03
2019-02-04T05:19:42.261Z,10.53
2019-02-04T05:22:11.166Z,10.70
2019-02-04T05:24:35.592Z,11.00
2019-02-04T05:27:00.005Z,10.47
2019-02-04T05:29:24.482Z,10.83
2019-02-04T05:31:48.910Z,11.07
2019-02-04T05:34:13.317Z,11.27
2019-02-04T05:36:37.767Z,11.37
2019-02-04T05:39:02.201Z,11.20
2019-02-04T05:41:26.754Z,11.43
2019-02-04T05:43:51.586Z,12.27
2019-02-04T05:46:16.015Z,11.80
2019-02-04T05:48:49.034Z,12.17
2019-02-04T05:51:06.552Z,12.23
2019-02-04T05:53:30.963Z,12.00
2019-02-04T05:55:55.473Z,13.07
2019-02-04T05:58:19.883Z,13.07
2019-02-04T06:00:45.668Z,12.30
2019-02-04T06:03:10.180Z,12.67
2019-02-04T06:05:34.653Z,13.70
2019-02-04T06:07:59.235Z,13.10
2019-02-04T06:10:23.716Z,13.13
2019-02-04T06:12:48.224Z,12.97
2019-02-04T06:15:16.600Z,13.40
2019-02-04T06:17:41.032Z,12.50
2019-02-04T06:20:14.056Z,13.50
2019-02-04T06:22:38.508Z,12.97
2019-02-04T06:25:03.565Z,12.90
2019-02-04T06:27:28.090Z,13.47
2019-02-04T06:29:55.617Z,13.70
2019-02-04T06:32:20.142Z,13.03
2019-02-04T06:34:44.551Z,13.23
2019-02-04T06:37:08.956Z,14.40
2019-02-04T06:39:33.388Z,14.37
2019-02-04T06:41:57.856Z,14.23
2019-02-04T06:44:22.290Z,17.23
2019-02-04T06:46:46.775Z,16.37
2019-02-04T06:49:12.665Z,15.17
2019-02-04T06:51:37.160Z,15.03
2019-02-04T06:54:01.588Z,14.57
2019-02-04T06:56:26.069Z,14.87
2019-02-04T06:58:50.493Z,14.43
2019-02-04T07:01:14.959Z,15.27
2019-02-04T07:03:39.418Z,15.83
2019-02-04T07:06:03.910Z,15.00
2019-02-04T07:08:28.472Z,15.03
2019-02-04T07:10:53.009Z,15.83
2019-02-04T07:13:17.661Z,16.73
2019-02-04T07:15:42.099Z,15.90
2019-02-04T07:18:06.579Z,15.57
2019-02-04T07:20:31.088Z,14.63
2019-02-04T07:22:55.572Z,16.40
2019-02-04T07:25:20.433Z,16.27
2019-02-04T07:27:44.902Z,15.07
2019-02-04T07:30:26.321Z,15.90
2019-02-04T07:32:51.036Z,16.00
2019-02-04T07:35:17.408Z,15.63
2019-02-04T07:37:41.815Z,17.77
2019-02-04T07:40:09.308Z,16.57
2019-02-04T07:42:33.723Z,16.50
2019-02-04T07:44:58.159Z,17.10
2019-02-04T07:47:25.613Z,16.37
2019-02-04T07:49:50.107Z,16.43
2019-02-04T07:52:14.545Z,18.43
2019-02-04T07:54:39.229Z,18.87
2019-02-04T07:57:03.658Z,18.27
2019-02-04T07:59:28.071Z,17.17
2019-02-04T08:01:52.529Z,18.33
2019-02-04T08:04:16.949Z,18.47
2019-02-04T08:06:41.370Z,19.03
2019-02-04T08:09:08.689Z,17.87
2019-02-04T08:11:33.151Z,18.40
2019-02-04T08:13:57.652Z,18.03
2019-02-04T08:16:22.537Z,18.13
2019-02-04T08:18:48.598Z,18.10
2019-02-04T08:21:13.037Z,18.40
2019-02-04T08:23:37.462Z,17.60
2019-02-04T08:26:02.080Z,17.50
2019-02-04T08:28:26.477Z,17.17
2019-02-04T08:30:50.899Z,18.00
2019-02-04T08:33:15.341Z,17.03
2019-02-04T08:35:39.761Z,18.10
2019-02-04T08:38:04.415Z,18.07
2019-02-04T08:40:29.467Z,17.50
2019-02-04T08:42:53.977Z,18.10
2019-02-04T08:45:18.475Z,17.97
2019-02-04T08:47:43.159Z,18.67
2019-02-04T08:50:10.625Z,17.13
2019-02-04T08:52:35.057Z,18.33
2019-02-04T08:54:59.508Z,18.33
2019-02-04T08:57:24.152Z,18.07
2019-02-04T08:59:48.547Z,17.53
2019-02-04T09:02:13.021Z,18.30
2019-02-04T09:04:37.458Z,18.00
2019-02-04T09:07:02.389Z,17.07
2019-02-04T09:09:26.828Z,18.07
2019-02-04T09:11:51.335Z,16.33
2019-02-04T09:14:15.792Z,15.97
2019-02-04T09:16:40.210Z,17.13
2019-02-04T09:19:04.994Z,15.80
2019-02-04T09:21:29.477Z,16.23
2019-02-04T09:23:53.897Z,16.37
2019-02-04T09:26:18.384Z,15.73
2019-02-04T09:28:42.833Z,15.47
2019-02-04T09:31:08.134Z,15.53
2019-02-04T09:33:32.911Z,15.47
2019-02-04T09:35:57.321Z,14.97
2019-02-04T09:38:21.818Z,14.67
2019-02-04T09:40:46.408Z,14.73
2019-02-04T09:43:11.321Z,14.70
2019-02-04T09:45:35.873Z,13.87
2019-02-04T09:48:00.363Z,15.20
2019-02-04T09:50:27.849Z,14.93
2019-02-04T09:52:52.267Z,13.50
2019-02-04T09:55:21.686Z,14.40
2019-02-04T09:57:46.080Z,13.37
2019-02-04T10:00:16.631Z,13.77
2019-02-04T10:02:41.039Z,13.77
2019-02-04T10:05:09.019Z,13.90
2019-02-04T10:07:33.436Z,13.47
2019-02-04T10:09:59.042Z,13.43
2019-02-04T10:12:23.492Z,14.03
2019-02-04T10:14:48.399Z,12.83
2019-02-04T10:17:12.839Z,13.87
2019-02-04T10:19:37.212Z,13.70
2019-02-04T10:22:01.772Z,15.43
2019-02-04T10:24:26.170Z,14.10
2019-02-04T10:26:50.701Z,14.90
2019-02-04T10:29:15.154Z,12.40
2019-02-04T10:31:39.566Z,12.33
2019-02-04T10:34:04.108Z,13.43
2019-02-04T10:36:28.679Z,16.63
2019-02-04T10:38:53.466Z,17.57
2019-02-04T10:41:17.943Z,13.63
2019-02-04T10:43:42.327Z,13.40
2019-02-04T10:46:06.957Z,11.47
2019-02-04T10:48:31.473Z,11.73
2019-02-04T10:50:56.092Z,11.57
2019-02-04T10:53:20.507Z,10.97
2019-02-04T10:55:44.978Z,10.07
2019-02-04T10:58:11.595Z,10.23
2019-02-04T11:00:36.539Z,9.90
2019-02-04T11:03:01.333Z,9.40
2019-02-04T11:05:28.851Z,8.57
2019-02-04T11:07:53.482Z,8.73
2019-02-04T11:10:20.900Z,8.50
2019-02-04T11:12:45.477Z,9.23
2019-02-04T11:15:12.780Z,8.13
2019-02-04T11:17:37.324Z,8.50
2019-02-04T11:20:01.814Z,8.17
2019-02-04T11:22:26.602Z,8.00
2019-02-04T11:24:51.220Z,8.10
2019-02-04T11:27:15.706Z,7.67
2019-02-04T11:29:40.086Z,8.60
2019-02-04T11:32:05.296Z,8.33
2019-02-04T11:34:29.844Z,8.27
2019-02-04T11:36:54.250Z,8.07
2019-02-04T11:39:18.700Z,6.90
2019-02-04T11:41:43.223Z,7.53
2019-02-04T11:44:07.720Z,7.63
2019-02-04T11:46:32.407Z,7.07
2019-02-04T11:48:57.042Z,6.67
2019-02-04T11:51:21.434Z,7.17
2019-02-04T11:53:45.863Z,7.30
2019-02-04T11:56:10.263Z,7.90
2019-02-04T11:58:34.726Z,7.13
2019-02-04T12:00:59.158Z,7.37
2019-02-04T12:03:23.638Z,6.93
2019-02-04T12:05:48.195Z,6.80
2019-02-04T12:08:13.121Z,8.30
2019-02-04T12:10:43.737Z,8.53
2019-02-04T12:13:08.273Z,7.90
2019-02-04T12:15:32.869Z,7.50
2019-02-04T12:17:57.335Z,7.10
2019-02-04T12:20:21.842Z,6.60
2019-02-04T12:22:48.142Z,7.10
2019-02-04T12:25:15.455Z,7.27
2019-02-04T12:27:39.870Z,7.37
2019-02-04T12:30:10.138Z,7.23
2019-02-04T12:32:34.575Z,7.37
2019-02-04T12:34:58.990Z,6.83
2019-02-04T12:37:23.560Z,7.53
2019-02-04T12:39:48.002Z,7.43
2019-02-04T12:42:12.581Z,8.03
2019-02-04T12:44:37.057Z,8.10
2019-02-04T12:47:01.549Z,7.63
2019-02-04T12:49:25.945Z,7.87
2019-02-04T12:51:50.592Z,8.13
2019-02-04T12:54:15.382Z,7.93
2019-02-04T12:56:39.880Z,8.57
2019-02-04T12:59:04.527Z,8.80
2019-02-04T13:01:28.959Z,8.40
2019-02-04T13:03:53.370Z,9.03
2019-02-04T13:06:17.785Z,9.10
2019-02-04T13:08:42.219Z,10.67
2019-02-04T13:11:06.759Z,9.40
2019-02-04T13:13:31.263Z,9.60
2019-02-04T13:15:55.654Z,9.43
2019-02-04T13:18:20.477Z,9.37
2019-02-04T13:20:45.011Z,9.50
2019-02-04T13:23:09.888Z,10.10
2019-02-04T13:25:34.297Z,10.77
2019-02-04T13:27:58.898Z,10.80
2019-02-04T13:30:25.747Z,10.93
2019-02-04T13:32:50.252Z,11.20
2019-02-04T13:35:15.631Z,10.97
2019-02-04T13:37:40.040Z,10.53
2019-02-04T13:40:10.534Z,11.90
2019-02-04T13:42:35.018Z,11.20
2019-02-04T13:44:59.617Z,11.40
2019-02-04T13:47:24.180Z,12.10
2019-02-04T13:49:48.640Z,11.43
2019-02-04T13:52:15.224Z,11.63
2019-02-04T13:54:39.334Z,11.00
2019-02-04T13:57:03.841Z,10.43
2019-02-04T13:59:28.279Z,11.23
2019-02-04T14:01:53.059Z,11.07
2019-02-04T14:04:17.549Z,12.23
2019-02-04T14:06:42.133Z,10.70
2019-02-04T14:09:09.597Z,11.50
2019-02-04T14:11:34.202Z,11.13
2019-02-04T14:13:58.689Z,10.67
2019-02-04T14:16:23.258Z,10.97
2019-02-04T14:18:47.689Z,11.03
2019-02-04T14:21:12.208Z,13.10
2019-02-04T14:23:36.890Z,11.10
2019-02-04T14:26:01.359Z,11.13
2019-02-04T14:28:25.915Z,10.70
2019-02-04T14:30:50.607Z,12.40
2019-02-04T14:33:15.089Z,11.33
2019-02-04T14:35:39.585Z,14.03
2019-02-04T14:38:05.288Z,12.13
2019-02-04T14:40:29.838Z,11.23
2019-02-04T14:43:12.203Z,10.27
2019-02-04T14:45:39.649Z,11.70
2019-02-04T14:48:07.133Z,11.03
2019-02-04T14:50:40.284Z,10.03
2019-02-04T14:53:16.370Z,9.70
2019-02-04T14:55:49.803Z,10.17
2019-02-04T14:58:23.180Z,10.90
2019-02-04T15:01:17.711Z,9.80
2019-02-04T15:04:13.478Z,10.13
2019-02-04T15:06:52.842Z,9.40
2019-02-04T15:09:35.487Z,9.20
2019-02-04T15:12:20.195Z,9.57
2019-02-04T15:15:11.578Z,9.87
2019-02-04T15:17:36.685Z,9.50
2019-02-04T15:20:26.567Z,9.73
2019-02-04T15:23:02.698Z,8.90
2019-02-04T15:25:38.799Z,9.60
2019-02-04T15:28:08.924Z,10.27
2019-02-04T15:30:52.701Z,9.93
2019-02-04T15:33:20.346Z,9.60
2019-02-04T15:35:47.824Z,9.43
2019-02-04T15:38:21.080Z,9.40
2019-02-04T15:40:54.363Z,9.17
2019-02-04T15:43:27.418Z,10.13
2019-02-04T15:46:03.786Z,11.80
2019-02-04T15:48:34.146Z,10.20
2019-02-04T15:51:16.582Z,9.90
2019-02-04T15:53:41.048Z,9.63
2019-02-04T15:56:06.210Z,9.97
2019-02-04T15:58:30.634Z,9.83
2019-02-04T16:00:55.132Z,10.47
2019-02-04T16:03:19.718Z,10.60
2019-02-04T16:05:44.207Z,9.30
2019-02-04T16:08:08.699Z,8.90
2019-02-04T16:10:33.180Z,9.60
2019-02-04T16:12:57.616Z,8.53
2019-02-04T16:15:22.186Z,8.93
2019-02-04T16:17:46.859Z,8.63
2019-02-04T16:20:17.176Z,8.83
2019-02-04T16:22:41.639Z,8.93
2019-02-04T16:25:09.081Z,8.47
2019-02-04T16:27:33.485Z,8.10
2019-02-04T16:29:57.984Z,8.80
2019-02-04T16:32:22.435Z,8.03
2019-02-04T16:34:46.890Z,8.70
2019-02-04T16:37:11.483Z,8.50
2019-02-04T16:39:35.917Z,8.00
2019-02-04T16:42:00.609Z,8.37
2019-02-04T16:44:25.188Z,8.00
2019-02-04T16:46:49.593Z,8.47
2019-02-04T16:49:14.039Z,8.70
2019-02-04T16:51:38.520Z,8.50
2019-02-04T16:54:03.110Z,8.50
2019-02-04T16:56:27.591Z,8.80
2019-02-04T16:58:52.128Z,8.83
2019-02-04T17:01:16.544Z,9.87
2019-02-04T17:03:41.133Z,8.90
2019-02-04T17:06:05.691Z,7.90
2019-02-04T17:08:30.316Z,8.07
2019-02-04T17:10:54.827Z,7.97
2019-02-04T17:13:19.229Z,7.50
2019-02-04T17:15:43.671Z,7.57
2019-02-04T17:18:08.144Z,7.73
2019-02-04T17:20:33.202Z,7.47
2019-02-04T17:22:57.679Z,7.10
2019-02-04T17:25:22.261Z,8.03
2019-02-04T17:27:46.740Z,7.57
2019-02-04T17:30:25.206Z,7.83
2019-02-04T17:32:49.725Z,7.50
2019-02-04T17:35:14.283Z,6.93
2019-02-04T17:37:38.832Z,8.10
2019-02-04T17:40:03.288Z,7.30
2019-02-04T17:42:27.815Z,6.63
2019-02-04T17:44:52.234Z,7.43
2019-02-04T17:47:16.754Z,7.00
2019-02-04T17:49:41.278Z,6.97
2019-02-04T17:52:06.064Z,6.77
2019-02-04T17:54:30.443Z,7.23
2019-02-04T17:56:54.990Z,6.60
2019-02-04T17:59:19.374Z,7.07
2019-02-04T18:01:43.803Z,6.53
2019-02-04T18:04:08.269Z,6.30
2019-02-04T18:06:32.809Z,6.70
2019-02-04T18:08:57.314Z,6.57
2019-02-04T18:11:21.801Z,6.63
2019-02-04T18:13:46.307Z,6.90
2019-02-04T18:16:11.031Z,6.23
2019-02-04T18:18:35.482Z,7.27
2019-02-04T18:20:59.973Z,6.53
2019-02-04T18:23:24.471Z,6.80
2019-02-04T18:25:48.953Z,6.30
2019-02-04T18:28:13.471Z,6.60
2019-02-04T18:30:37.948Z,6.77
2019-02-04T18:33:02.454Z,6.50
2019-02-04T18:35:27.109Z,6.83
2019-02-04T18:37:51.511Z,6.93
2019-02-04T18:40:20.130Z,6.47
2019-02-04T18:42:44.703Z,8.73
2019-02-04T18:45:12.205Z,7.93
2019-02-04T18:47:36.608Z,6.67
2019-02-04T18:50:01.217Z,7.00
2019-02-04T18:52:25.947Z,6.43
2019-02-04T18:54:50.450Z,5.93
2019-02-04T18:57:15.168Z,6.00
2019-02-04T18:59:39.861Z,6.70
2019-02-04T19:02:04.810Z,6.60
2019-02-04T19:04:29.227Z,6.10
2019-02-04T19:06:53.776Z,6.00
2019-02-04T19:09:18.216Z,6.23
2019-02-04T19:11:42.698Z,5.43
2019-02-04T19:14:07.394Z,6.00
2019-02-04T19:16:31.949Z,5.53
2019-02-04T19:18:56.360Z,6.17
2019-02-04T19:21:21.175Z,5.70
2019-02-04T19:23:45.653Z,5.40
2019-02-04T19:26:10.199Z,5.63
2019-02-04T19:28:34.743Z,6.00
2019-02-04T19:31:02.593Z,5.97
2019-02-04T19:33:27.062Z,5.87
2019-02-04T19:35:51.713Z,5.63
2019-02-04T19:38:16.203Z,5.37
2019-02-04T19:40:40.781Z,6.23
2019-02-04T19:43:05.436Z,5.43
2019-02-04T19:45:30.196Z,5.13
2019-02-04T19:47:54.675Z,5.67
2019-02-04T19:50:24.755Z,5.47
2019-02-04T19:52:49.301Z,5.93
2019-02-04T19:55:14.075Z,5.87
2019-02-04T19:57:38.499Z,5.67
2019-02-04T20:00:03.174Z,5.17
2019-02-04T20:02:27.682Z,5.40
2019-02-04T20:04:52.175Z,5.83
2019-02-04T20:07:16.874Z,6.27
2019-02-04T20:09:41.355Z,6.13
2019-02-04T20:12:06.153Z,6.10
2019-02-04T20:14:30.654Z,5.77
2019-02-04T20:16:55.125Z,6.03
2019-02-04T20:19:19.606Z,6.50
2019-02-04T20:21:45.620Z,6.20
2019-02-04T20:24:10.164Z,6.77
2019-02-04T20:26:34.626Z,6.47
2019-02-04T20:28:59.046Z,6.67
2019-02-04T20:31:23.454Z,6.57
2019-02-04T20:33:47.908Z,6.80
2019-02-04T20:36:12.406Z,6.20
2019-02-04T20:38:36.918Z,6.30
2019-02-04T20:41:01.476Z,6.87
2019-02-04T20:43:25.931Z,6.80
2019-02-04T20:45:50.348Z,6.53
2019-02-04T20:48:14.926Z,7.57
2019-02-04T20:50:42.133Z,6.77
2019-02-04T20:53:06.724Z,7.10
2019-02-04T20:55:31.659Z,6.77
2019-02-04T20:57:56.513Z,7.13
2019-02-04T21:00:31.135Z,7.70
2019-02-04T21:02:55.545Z,7.43
2019-02-04T21:05:20.107Z,7.33
2019-02-04T21:07:44.605Z,6.53
2019-02-04T21:10:12.107Z,7.50
2019-02-04T21:12:36.542Z,6.37
2019-02-04T21:15:01.033Z,6.87
2019-02-04T21:17:27.445Z,7.23
2019-02-04T21:19:51.877Z,7.30
2019-02-04T21:22:16.364Z,7.10
2019-02-04T21:24:40.840Z,7.10
2019-02-04T21:27:05.577Z,6.83
2019-02-04T21:29:30.118Z,6.97
2019-02-04T21:31:54.514Z,6.90
2019-02-04T21:34:18.921Z,6.27
2019-02-04T21:36:43.429Z,6.70
2019-02-04T21:39:08.294Z,6.70
2019-02-04T21:41:33.002Z,6.33
2019-02-04T21:43:57.506Z,6.47
2019-02-04T21:46:22.005Z,5.80
2019-02-04T21:48:46.428Z,6.87
2019-02-04T21:51:10.928Z,6.70
2019-02-04T21:53:35.333Z,6.87
2019-02-04T21:55:59.752Z,6.30
2019-02-04T21:58:24.158Z,6.30
2019-02-04T22:00:48.673Z,6.27
2019-02-04T22:03:13.072Z,6.23
2019-02-04T22:05:37.471Z,6.43
2019-02-04T22:08:02.235Z,7.47
2019-02-04T22:10:28.484Z,6.70
2019-02-04T22:12:52.996Z,5.90
2019-02-04T22:15:17.540Z,6.60
2019-02-04T22:17:42.048Z,7.27
2019-02-04T22:20:09.772Z,5.93
2019-02-04T22:22:34.238Z,6.50
2019-02-04T22:24:58.640Z,7.27
2019-02-04T22:27:23.235Z,6.70
2019-02-04T22:29:47.636Z,6.07
2019-02-04T22:32:12.206Z,6.93
2019-02-04T22:34:36.882Z,5.80
2019-02-04T22:37:01.357Z,6.27
2019-02-04T22:39:25.802Z,6.47
2019-02-04T22:41:50.200Z,6.27
2019-02-04T22:44:14.638Z,6.57
2019-02-04T22:46:39.050Z,6.40
2019-02-04T22:49:03.496Z,6.37
2019-02-04T22:51:27.881Z,6.77
2019-02-04T22:53:52.398Z,6.57
2019-02-04T22:56:16.871Z,6.77
2019-02-04T22:58:41.574Z,6.80
2019-02-04T23:01:14.683Z,6.90
2019-02-04T23:03:39.170Z,6.93
2019-02-04T23:06:03.720Z,7.20
2019-02-04T23:08:28.177Z,7.53
2019-02-04T23:10:52.720Z,7.33
2019-02-04T23:13:17.189Z,7.07
2019-02-04T23:15:41.840Z,6.90
2019-02-04T23:18:06.670Z,6.33
2019-02-04T23:20:31.162Z,6.90
2019-02-04T23:22:55.641Z,6.77
2019-02-04T23:25:20.071Z,7.33
2019-02-04T23:27:44.491Z,6.47
2019-02-04T23:30:15.247Z,6.20
2019-02-04T23:32:39.642Z,7.00
2019-02-04T23:35:04.630Z,6.77
2019-02-04T23:37:29.115Z,6.37
2019-02-04T23:39:53.819Z,6.47
2019-02-04T23:42:18.370Z,6.13
2019-02-04T23:44:42.865Z,6.73
2019-02-04T23:47:07.272Z,6.27
2019-02-04T23:49:31.672Z,6.90
2019-02-04T23:51:56.183Z,6.30
2019-02-04T23:54:21.355Z,6.27
2019-02-04T23:56:45.778Z,6.67
2019-02-04T23:59:10.320Z,6.50
